Jackson, WY

7:26 AM MDT on October 21, 2019 (GMT -0600)
Upper Cache Creek Dr. | | Change Station
Active Advisory: Special Statement

Elev 6535 ft 43.47 °N, 110.75 °W | Updated 11 seconds ago

Overcast
Overcast
29.1 °F
Feels Like 29 °F
N
0
Wind Variable Wind from SSW
Gusts 0.0 mph

Today
High -- | Low -- °F
--% Chance of Precip.
Yesterday
High -- | Low -- °F
Precip. -- in
Pressure 30.13 in
Visibility 5.0 miles
Clouds Mostly Cloudy 3000 ft
Overcast 3600 ft
Windchill 29 °F
Dew Point 24 °F
Humidity 82%
Rainfall 0.00 in
Snow Depth Not available.
7:44 AM 6:30 PM
Waning Gibbous, 50% visible
METAR KJAC 211256Z 23006KT 5SM -SN BR BKN030 OVC036 M02/M03 A3002 RMK AO2 SLP202 P0000 T10171033
Pressure 30.13 in
Visibility 5.0 miles
Clouds Mostly Cloudy 3000 ft
Overcast 3600 ft
Windchill 29 °F
Dew Point 24 °F
Humidity 82%
Rainfall 0.00 in
Snow Depth Not available.
7:44 AM 6:30 PM
Waning Gibbous, 50% visible
METAR KJAC 211256Z 23006KT 5SM -SN BR BKN030 OVC036 M02/M03 A3002 RMK AO2 SLP202 P0000 T10171033

Get Your Daily Forecast Email!

Thanks for signing up!

Be on the lookout for a verification email in your inbox.

You'll start receiving severe weather alerts in your inbox..

×

10-Day Weather Forecast

Almanac

Astronomy

Oct. 21, 2019 Rise Set
Actual Time
Civil Twilight
Nautical Twilight
Astronomical Twilight
Moon
Length of Visible Light
Length of Day
Tomorrow will be .
, % of the Moon is Illuminated

Today's Extremes

State Highs State Lows

Community

WunderPhotos

Category 6

Welcome to Category 6. This is the collective home for Weather Underground's featured writeups by Dr. Jeff Masters (right), Bob Henson (left), Chris Burt, and other regular contributors.

Nearby

Air Quality

  Air Quality AQ Index Pollutant
Not available.

Snow Depth

Station Depth Elevation

Earthquake Activity

City Distance Mag. Time & Date
Minimum magnitude displayed is 2.5.

Coastal Water Temperatures

Place Temperature

Stations

Nearby Weather Stations

Station Location Temp. Windchill Dew Point Humidity Wind Precip. Elev Updated Type
                   

Watches & Warnings

Special Statement
Issued: 5:54 AM MDT Oct. 21, 2019 – National Weather Service

... Slick roads this morning...

This is a Special Weather Statement from the National Weather
Service office in Riverton.

* What... light snow. Untreated roads will be slick and hazardous
in most locations across far western Wyoming including Jackson
Hole and Star Valley.

* Where... far western Wyoming.

* When... snow will taper off to flurries or very light snow
between 9 am and noon.

* Additional details... estimated snowfall overnight across Star
Valley looks to have ranged around 2 to 3 inches while snowfall
across Jackson Hole look be much lighter. An additional inch of
snow could occur between 6 am and 9 am mainly in Star Valley
and Teton mountains.


21